createdAt,value
2018-03-22T00:01:14.036Z,44.87
2018-03-22T00:03:42.437Z,47.43
2018-03-22T00:06:10.893Z,49.67
2018-03-22T00:08:39.358Z,55.13
2018-03-22T00:11:07.769Z,54.00
2018-03-22T00:13:36.214Z,49.60
2018-03-22T00:16:04.617Z,64.60
2018-03-22T00:18:33.090Z,48.87
2018-03-22T00:21:01.493Z,48.77
2018-03-22T00:23:29.890Z,57.40
2018-03-22T00:25:58.321Z,52.23
2018-03-22T00:28:26.801Z,49.83
2018-03-22T00:30:55.200Z,47.73
2018-03-22T00:33:23.668Z,54.53
2018-03-22T00:35:52.045Z,49.60
2018-03-22T00:38:20.481Z,50.47
2018-03-22T00:40:48.842Z,45.73
2018-03-22T00:43:17.253Z,50.53
2018-03-22T00:45:45.679Z,41.03
2018-03-22T00:48:14.106Z,44.67
2018-03-22T00:50:42.498Z,43.23
2018-03-22T00:53:10.997Z,47.83
2018-03-22T00:55:39.384Z,53.23
2018-03-22T00:58:07.780Z,56.83
2018-03-22T01:00:36.214Z,45.80
2018-03-22T01:03:04.712Z,44.40
2018-03-22T01:05:33.199Z,49.30
2018-03-22T01:08:01.623Z,60.57
2018-03-22T01:10:30.006Z,48.50
2018-03-22T01:12:58.434Z,42.53
2018-03-22T01:15:26.893Z,40.60
2018-03-22T01:17:55.302Z,39.97
2018-03-22T01:20:23.712Z,46.70
2018-03-22T01:22:52.113Z,44.43
2018-03-22T01:25:20.491Z,46.27
2018-03-22T01:27:48.895Z,37.10
2018-03-22T01:30:29.165Z,38.63
2018-03-22T01:32:57.674Z,42.77
2018-03-22T01:35:26.124Z,43.47
2018-03-22T01:37:54.490Z,40.90
2018-03-22T01:40:22.948Z,36.33
2018-03-22T01:42:51.383Z,39.97
2018-03-22T01:45:19.841Z,38.13
2018-03-22T01:47:48.343Z,39.47
2018-03-22T01:50:16.707Z,37.00
2018-03-22T01:52:57.296Z,36.77
2018-03-22T01:55:25.665Z,36.20
2018-03-22T01:57:54.125Z,41.43
2018-03-22T02:00:22.544Z,36.27
2018-03-22T02:02:50.978Z,30.30
2018-03-22T02:05:19.453Z,33.00
2018-03-22T02:07:47.859Z,33.73
2018-03-22T02:10:16.537Z,35.33
2018-03-22T02:12:44.940Z,33.07
2018-03-22T02:15:13.508Z,35.73
2018-03-22T02:17:41.977Z,29.90
2018-03-22T02:20:10.416Z,34.73
2018-03-22T02:22:38.933Z,34.27
2018-03-22T02:25:07.380Z,41.43
2018-03-22T02:27:35.840Z,29.03
2018-03-22T02:30:04.338Z,31.93
2018-03-22T02:32:32.745Z,38.13
2018-03-22T02:35:01.226Z,32.53
2018-03-22T02:37:29.693Z,38.90
2018-03-22T02:39:58.108Z,28.13
2018-03-22T02:42:26.501Z,29.30
2018-03-22T02:44:55.009Z,29.70
2018-03-22T02:47:23.396Z,34.10
2018-03-22T02:49:51.844Z,29.00
2018-03-22T02:52:20.325Z,29.17
2018-03-22T02:54:48.698Z,31.20
2018-03-22T02:57:17.117Z,33.53
2018-03-22T02:59:45.722Z,37.70
2018-03-22T03:02:14.121Z,30.90
2018-03-22T03:04:42.561Z,26.43
2018-03-22T03:07:10.956Z,27.80
2018-03-22T03:09:39.380Z,26.47
2018-03-22T03:12:07.793Z,28.80
2018-03-22T03:14:36.217Z,34.50
2018-03-22T03:17:04.610Z,25.93
2018-03-22T03:19:33.028Z,29.97
2018-03-22T03:22:01.432Z,22.30
2018-03-22T03:24:29.910Z,27.37
2018-03-22T03:26:58.358Z,30.17
2018-03-22T03:29:26.832Z,25.77
2018-03-22T03:31:55.294Z,27.60
2018-03-22T03:34:23.704Z,29.70
2018-03-22T03:36:52.128Z,27.47
2018-03-22T03:39:20.556Z,29.03
2018-03-22T03:41:48.980Z,26.17
2018-03-22T03:44:17.414Z,26.13
2018-03-22T03:46:45.793Z,28.20
2018-03-22T03:49:14.505Z,26.67
2018-03-22T03:51:42.930Z,30.17
2018-03-22T03:54:11.364Z,31.90
2018-03-22T03:56:39.797Z,22.90
2018-03-22T03:59:08.202Z,29.33
2018-03-22T04:01:36.697Z,28.47
2018-03-22T04:04:05.244Z,29.23
2018-03-22T04:06:33.685Z,27.17
2018-03-22T04:09:02.089Z,29.80
2018-03-22T04:11:30.537Z,27.23
2018-03-22T04:13:59.020Z,27.17
2018-03-22T04:16:27.436Z,24.03
2018-03-22T04:18:55.828Z,28.50
2018-03-22T04:21:24.418Z,28.77
2018-03-22T04:23:52.848Z,28.90
2018-03-22T04:26:21.215Z,29.93
2018-03-22T04:28:49.621Z,26.43
2018-03-22T04:31:18.050Z,37.30
2018-03-22T04:33:46.452Z,31.07
2018-03-22T04:36:14.893Z,32.07
2018-03-22T04:38:43.285Z,32.10
2018-03-22T04:41:11.720Z,29.10
2018-03-22T04:43:40.160Z,30.47
2018-03-22T04:46:08.580Z,26.93
2018-03-22T04:48:37.013Z,26.50
2018-03-22T04:51:05.486Z,32.23
2018-03-22T04:53:33.885Z,29.43
2018-03-22T04:56:02.316Z,39.40
2018-03-22T04:58:30.712Z,32.93
2018-03-22T05:00:59.121Z,34.77
2018-03-22T05:03:27.576Z,31.80
2018-03-22T05:05:55.976Z,33.17
2018-03-22T05:08:24.416Z,35.40
2018-03-22T05:10:52.859Z,25.97
2018-03-22T05:13:21.261Z,29.23
2018-03-22T05:15:49.684Z,31.23
2018-03-22T05:18:18.132Z,37.90
2018-03-22T05:20:46.655Z,33.07
2018-03-22T05:23:15.072Z,31.73
2018-03-22T05:25:43.527Z,36.30
2018-03-22T05:28:12.103Z,35.23
2018-03-22T05:30:40.496Z,32.83
2018-03-22T05:33:08.942Z,31.73
2018-03-22T05:35:37.448Z,34.27
2018-03-22T05:38:05.892Z,30.70
2018-03-22T05:40:34.353Z,35.43
2018-03-22T05:43:02.807Z,35.87
2018-03-22T05:45:31.324Z,38.47
2018-03-22T05:47:59.803Z,36.60
2018-03-22T05:50:28.233Z,38.70
2018-03-22T05:52:56.661Z,39.17
2018-03-22T05:55:25.118Z,32.17
2018-03-22T05:57:53.563Z,38.87
2018-03-22T06:00:21.992Z,35.63
2018-03-22T06:02:50.430Z,31.37
2018-03-22T06:05:18.850Z,35.83
2018-03-22T06:07:47.281Z,31.43
2018-03-22T06:10:15.693Z,32.90
2018-03-22T06:12:44.156Z,35.33
2018-03-22T06:15:12.620Z,35.97
2018-03-22T06:17:41.195Z,43.07
2018-03-22T06:20:09.668Z,34.93
2018-03-22T06:22:38.136Z,36.00
2018-03-22T06:25:06.640Z,40.67
2018-03-22T06:27:35.089Z,48.70
2018-03-22T06:30:03.542Z,35.77
2018-03-22T06:32:32.008Z,36.43
2018-03-22T06:35:00.450Z,38.33
2018-03-22T06:37:28.942Z,45.40
2018-03-22T06:39:57.440Z,39.10
2018-03-22T06:42:26.056Z,39.73
2018-03-22T06:44:54.572Z,42.00
2018-03-22T06:47:23.084Z,44.13
2018-03-22T06:49:51.600Z,52.87
2018-03-22T06:52:19.977Z,51.73
2018-03-22T06:54:48.605Z,63.73
2018-03-22T06:57:17.078Z,58.30
2018-03-22T06:59:45.464Z,67.80
2018-03-22T07:02:13.954Z,83.87
2018-03-22T07:04:42.361Z,85.33
2018-03-22T07:07:10.811Z,76.07
2018-03-22T07:09:39.492Z,62.37
2018-03-22T07:12:07.865Z,53.03
2018-03-22T07:14:36.404Z,41.33
2018-03-22T07:17:04.841Z,35.67
2018-03-22T07:19:33.348Z,31.37
2018-03-22T07:22:01.741Z,33.63
2018-03-22T07:24:30.173Z,40.90
2018-03-22T07:26:58.607Z,34.43
2018-03-22T07:29:27.070Z,33.90
2018-03-22T07:31:55.560Z,32.37
2018-03-22T07:34:24.033Z,32.63
2018-03-22T07:36:52.466Z,32.97
2018-03-22T07:39:20.901Z,20.77
2018-03-22T07:41:49.440Z,25.87
2018-03-22T07:44:23.664Z,20.60
2018-03-22T07:46:52.045Z,21.87
2018-03-22T07:49:20.454Z,24.17
2018-03-22T07:51:48.887Z,28.13
2018-03-22T07:54:17.376Z,35.63
2018-03-22T07:56:45.832Z,27.43
2018-03-22T07:59:14.240Z,27.43
2018-03-22T08:01:42.617Z,26.40
2018-03-22T08:04:11.160Z,26.03
2018-03-22T08:06:39.530Z,29.20
2018-03-22T08:09:07.935Z,31.30
2018-03-22T08:11:36.396Z,39.23
2018-03-22T08:14:04.903Z,42.17
2018-03-22T08:16:33.290Z,43.17
2018-03-22T08:19:01.735Z,31.70
2018-03-22T08:21:30.106Z,38.47
2018-03-22T08:23:58.519Z,31.73
2018-03-22T08:26:26.900Z,32.93
2018-03-22T08:28:55.385Z,31.43
2018-03-22T08:31:23.836Z,39.57
2018-03-22T08:33:52.368Z,31.60
2018-03-22T08:36:20.844Z,37.30
2018-03-22T08:38:49.209Z,28.63
2018-03-22T08:41:17.628Z,30.30
2018-03-22T08:43:46.037Z,27.60
2018-03-22T08:46:14.553Z,26.40
2018-03-22T08:48:42.999Z,24.03
2018-03-22T08:51:11.431Z,27.80
2018-03-22T08:53:39.877Z,25.60
2018-03-22T08:56:08.269Z,24.37
2018-03-22T08:58:36.680Z,28.17
2018-03-22T09:01:05.056Z,28.83
2018-03-22T09:03:33.521Z,30.33
2018-03-22T09:06:03.122Z,25.13
2018-03-22T09:08:31.544Z,27.20
2018-03-22T09:10:59.961Z,31.27
2018-03-22T09:13:28.404Z,27.00
2018-03-22T09:15:56.820Z,24.43
2018-03-22T09:18:25.264Z,22.90
2018-03-22T09:20:53.644Z,23.03
2018-03-22T09:23:22.467Z,27.43
2018-03-22T09:25:50.920Z,22.90
2018-03-22T09:28:19.293Z,24.33
2018-03-22T09:30:47.685Z,24.63
2018-03-22T09:33:16.045Z,26.23
2018-03-22T09:35:44.459Z,26.53
2018-03-22T09:38:12.854Z,24.43
2018-03-22T09:40:41.261Z,24.77
2018-03-22T09:43:09.629Z,24.90
2018-03-22T09:45:38.088Z,25.77
2018-03-22T09:48:06.480Z,29.47
2018-03-22T09:50:34.864Z,27.53
2018-03-22T09:53:03.297Z,28.07
2018-03-22T09:55:31.722Z,27.40
2018-03-22T09:58:00.080Z,29.27
2018-03-22T10:00:28.549Z,24.07
2018-03-22T10:02:57.014Z,25.53
2018-03-22T10:05:25.404Z,28.93
2018-03-22T10:07:53.801Z,26.33
2018-03-22T10:10:22.210Z,24.63
2018-03-22T10:12:50.631Z,29.30
2018-03-22T10:15:19.061Z,35.70
2018-03-22T10:17:47.450Z,29.67
2018-03-22T10:20:15.859Z,30.23
2018-03-22T10:22:44.349Z,29.30
2018-03-22T10:25:12.715Z,26.27
2018-03-22T10:27:41.099Z,26.03
2018-03-22T10:30:09.513Z,30.03
2018-03-22T10:32:37.960Z,27.77
2018-03-22T10:35:06.338Z,29.43
2018-03-22T10:37:34.765Z,27.57
2018-03-22T10:40:03.164Z,20.90
2018-03-22T10:42:31.545Z,23.57
2018-03-22T10:44:59.964Z,22.50
2018-03-22T10:47:28.329Z,21.90
2018-03-22T10:49:56.793Z,22.67
2018-03-22T10:52:25.245Z,33.20
2018-03-22T10:54:53.664Z,26.40
2018-03-22T10:57:22.025Z,17.70
2018-03-22T10:59:50.409Z,18.03
2018-03-22T11:02:24.256Z,18.83
2018-03-22T11:04:59.691Z,18.07
2018-03-22T11:07:28.062Z,14.37
2018-03-22T11:09:56.665Z,19.70
2018-03-22T11:12:25.078Z,15.17
2018-03-22T11:14:53.468Z,16.83
2018-03-22T11:17:21.845Z,14.23
2018-03-22T11:19:50.270Z,11.23
2018-03-22T11:22:18.655Z,15.63
2018-03-22T11:24:47.061Z,11.87
2018-03-22T11:27:15.498Z,14.97
2018-03-22T11:29:43.904Z,11.27
2018-03-22T11:32:12.307Z,11.67
2018-03-22T11:34:40.712Z,13.10
2018-03-22T11:37:09.065Z,9.70
2018-03-22T11:39:37.433Z,16.03
2018-03-22T11:42:05.872Z,11.43
2018-03-22T11:44:34.291Z,11.53
2018-03-22T11:47:02.661Z,10.83
2018-03-22T11:49:31.100Z,13.30
2018-03-22T11:51:59.483Z,13.77
2018-03-22T11:54:27.920Z,11.43
2018-03-22T11:56:56.376Z,10.33
2018-03-22T11:59:24.830Z,16.07
2018-03-22T12:01:53.218Z,6.53
2018-03-22T12:04:21.621Z,10.87
2018-03-22T12:06:50.068Z,13.20
2018-03-22T12:09:18.486Z,12.10
2018-03-22T12:11:46.901Z,12.60
2018-03-22T12:14:15.314Z,9.93
2018-03-22T12:16:43.684Z,14.23
2018-03-22T12:19:12.100Z,12.07
2018-03-22T12:21:40.631Z,10.83
2018-03-22T12:24:08.960Z,10.47
2018-03-22T12:26:37.328Z,11.03
2018-03-22T12:29:05.693Z,13.50
2018-03-22T12:31:34.161Z,11.73
2018-03-22T12:34:02.535Z,13.17
2018-03-22T12:36:30.945Z,11.67
2018-03-22T12:38:59.308Z,9.50
2018-03-22T12:41:27.772Z,9.13
2018-03-22T12:43:56.209Z,10.40
2018-03-22T12:46:24.630Z,6.40
2018-03-22T12:48:53.032Z,9.30
2018-03-22T12:51:21.442Z,7.60
2018-03-22T12:53:49.917Z,7.67
2018-03-22T12:56:18.320Z,11.13
2018-03-22T12:58:46.768Z,10.17
2018-03-22T13:01:15.120Z,16.37
2018-03-22T13:03:43.580Z,17.43
2018-03-22T13:06:11.985Z,11.60
2018-03-22T13:08:40.560Z,18.10
2018-03-22T13:11:08.997Z,11.80
2018-03-22T13:13:37.432Z,15.53
2018-03-22T13:16:05.833Z,15.10
2018-03-22T13:18:34.442Z,16.17
2018-03-22T13:21:02.797Z,18.60
2018-03-22T13:23:31.241Z,16.37
2018-03-22T13:25:59.825Z,14.60
2018-03-22T13:28:31.681Z,12.40
2018-03-22T13:31:00.068Z,14.60
2018-03-22T13:33:28.468Z,13.53
2018-03-22T13:35:56.918Z,14.40
2018-03-22T13:38:25.412Z,13.73
2018-03-22T13:40:54.318Z,14.03
2018-03-22T13:43:23.160Z,14.20
2018-03-22T13:45:51.581Z,17.23
2018-03-22T13:48:21.158Z,17.20
2018-03-22T13:50:49.658Z,15.60
2018-03-22T13:53:18.149Z,17.57
2018-03-22T13:55:46.567Z,18.20
2018-03-22T13:58:15.092Z,21.23
2018-03-22T14:00:43.484Z,16.20
2018-03-22T14:03:11.873Z,16.27
2018-03-22T14:05:40.293Z,15.17
2018-03-22T14:08:08.730Z,18.07
2018-03-22T14:10:37.169Z,15.93
2018-03-22T14:13:05.575Z,16.10
2018-03-22T14:15:34.020Z,12.60
2018-03-22T14:18:02.496Z,15.07
2018-03-22T14:20:30.921Z,16.77
2018-03-22T14:22:59.458Z,15.80
2018-03-22T14:25:27.862Z,14.20
2018-03-22T14:27:56.585Z,13.50
2018-03-22T14:30:25.000Z,16.33
2018-03-22T14:32:53.459Z,13.50
2018-03-22T14:35:22.015Z,13.87
2018-03-22T14:37:50.460Z,14.57
2018-03-22T14:40:19.052Z,13.57
2018-03-22T14:42:47.475Z,18.53
2018-03-22T14:45:15.880Z,12.57
2018-03-22T14:47:44.318Z,10.87
2018-03-22T14:50:12.712Z,13.67
2018-03-22T14:52:41.151Z,16.97
2018-03-22T14:55:09.585Z,13.10
2018-03-22T14:57:37.988Z,14.33
2018-03-22T15:00:06.460Z,14.30
2018-03-22T15:02:34.896Z,14.77
2018-03-22T15:05:03.285Z,11.17
2018-03-22T15:07:31.752Z,12.93
2018-03-22T15:10:00.120Z,9.50
2018-03-22T15:12:28.564Z,10.50
2018-03-22T15:14:57.016Z,11.80
2018-03-22T15:17:25.464Z,10.03
2018-03-22T15:19:53.888Z,9.70
2018-03-22T15:22:22.336Z,9.70
2018-03-22T15:24:51.227Z,17.10
2018-03-22T15:27:19.673Z,10.13
2018-03-22T15:29:48.090Z,12.23
2018-03-22T15:32:16.520Z,11.87
2018-03-22T15:34:44.926Z,18.73
2018-03-22T15:37:13.348Z,15.23
2018-03-22T15:39:41.884Z,10.73
2018-03-22T15:42:10.315Z,12.03
2018-03-22T15:44:38.793Z,10.87
2018-03-22T15:47:07.217Z,15.37
2018-03-22T15:49:35.582Z,13.07
2018-03-22T15:52:03.992Z,7.03
2018-03-22T15:54:32.368Z,5.13
2018-03-22T15:57:01.569Z,5.73
2018-03-22T15:59:30.088Z,5.37
2018-03-22T16:01:58.492Z,4.33
2018-03-22T16:04:29.185Z,4.37
2018-03-22T16:06:57.641Z,3.97
2018-03-22T16:09:25.990Z,3.27
2018-03-22T16:11:54.524Z,3.83
2018-03-22T16:14:22.949Z,3.60
2018-03-22T16:16:51.359Z,4.30
2018-03-22T16:19:19.808Z,5.10
2018-03-22T16:21:48.560Z,5.07
2018-03-22T16:24:16.988Z,3.70
2018-03-22T16:26:45.360Z,3.47
2018-03-22T16:29:13.729Z,5.53
2018-03-22T16:31:42.355Z,3.67
2018-03-22T16:34:10.749Z,4.27
2018-03-22T16:36:39.164Z,2.43
2018-03-22T16:39:07.617Z,2.50
2018-03-22T16:41:36.077Z,3.03
2018-03-22T16:44:04.496Z,5.47
2018-03-22T16:46:32.892Z,3.97
2018-03-22T16:49:01.265Z,6.97
2018-03-22T16:51:29.692Z,3.27
2018-03-22T16:53:58.088Z,3.63
2018-03-22T16:56:26.479Z,2.63
2018-03-22T16:58:54.876Z,2.77
2018-03-22T17:01:23.280Z,2.97
2018-03-22T17:03:51.700Z,2.73
2018-03-22T17:06:20.106Z,2.90
2018-03-22T17:08:48.654Z,2.13
2018-03-22T17:11:17.034Z,1.97
2018-03-22T17:13:45.470Z,1.87
2018-03-22T17:16:13.856Z,2.27
2018-03-22T17:18:42.285Z,2.17
2018-03-22T17:21:10.696Z,2.90
2018-03-22T17:23:39.105Z,2.30
2018-03-22T17:26:07.464Z,2.23
2018-03-22T17:28:35.900Z,2.83
2018-03-22T17:31:04.269Z,3.37
2018-03-22T17:33:32.668Z,3.63
2018-03-22T17:36:01.039Z,2.17
2018-03-22T17:38:29.475Z,2.83
2018-03-22T17:40:57.968Z,2.43
2018-03-22T17:43:26.380Z,3.33
2018-03-22T17:45:54.757Z,2.90
2018-03-22T17:48:23.129Z,2.10
2018-03-22T17:50:51.600Z,3.00
2018-03-22T17:53:20.029Z,5.43
2018-03-22T17:55:49.137Z,2.00
2018-03-22T17:58:17.531Z,3.50
2018-03-22T18:00:45.939Z,2.70
2018-03-22T18:03:14.375Z,5.53
2018-03-22T18:05:42.772Z,2.67
2018-03-22T18:08:11.180Z,2.93
2018-03-22T18:10:39.568Z,3.27
2018-03-22T18:13:08.019Z,2.93
2018-03-22T18:15:36.373Z,3.27
2018-03-22T18:18:04.821Z,6.67
2018-03-22T18:20:33.219Z,2.73
2018-03-22T18:23:01.641Z,2.60
2018-03-22T18:25:30.028Z,2.10
2018-03-22T18:27:58.441Z,13.27
2018-03-22T18:30:26.908Z,5.80
2018-03-22T18:32:55.307Z,3.73
2018-03-22T18:35:23.746Z,2.20
2018-03-22T18:37:52.148Z,2.13
2018-03-22T18:40:20.525Z,2.00
2018-03-22T18:42:48.943Z,2.47
2018-03-22T18:45:17.469Z,2.23
2018-03-22T18:47:45.885Z,2.60
2018-03-22T18:50:14.314Z,4.20
2018-03-22T18:52:42.694Z,2.43
2018-03-22T18:55:11.109Z,4.60
2018-03-22T18:57:39.479Z,2.50
2018-03-22T19:00:07.968Z,2.67
2018-03-22T19:02:36.384Z,2.57
2018-03-22T19:05:04.760Z,3.03
2018-03-22T19:07:33.205Z,2.83
2018-03-22T19:10:01.573Z,4.20
2018-03-22T19:12:30.008Z,3.73
2018-03-22T19:14:58.369Z,5.07
2018-03-22T19:17:26.803Z,4.53
2018-03-22T19:19:55.401Z,3.07
2018-03-22T19:22:23.960Z,3.23
2018-03-22T19:24:52.336Z,4.30
2018-03-22T19:27:20.771Z,4.20
2018-03-22T19:29:49.150Z,3.93
2018-03-22T19:32:17.531Z,2.33
2018-03-22T19:34:45.975Z,2.47
2018-03-22T19:37:14.343Z,2.77
2018-03-22T19:39:42.741Z,3.30
2018-03-22T19:42:11.154Z,2.13
2018-03-22T19:44:39.552Z,4.10
2018-03-22T19:47:07.950Z,7.10
2018-03-22T19:49:36.376Z,5.60
2018-03-22T19:52:04.857Z,3.90
2018-03-22T19:54:33.223Z,2.53
2018-03-22T19:57:01.645Z,4.30
2018-03-22T19:59:30.045Z,4.73
2018-03-22T20:01:58.418Z,3.73
2018-03-22T20:04:26.843Z,3.30
2018-03-22T20:06:55.225Z,3.50
2018-03-22T20:09:23.593Z,2.53
2018-03-22T20:11:52.124Z,3.13
2018-03-22T20:14:20.688Z,2.70
2018-03-22T20:16:49.171Z,2.20
2018-03-22T20:19:18.348Z,2.00
2018-03-22T20:21:47.171Z,3.23
2018-03-22T20:24:15.758Z,3.70
2018-03-22T20:26:44.309Z,2.57
2018-03-22T20:29:12.928Z,2.23
2018-03-22T20:31:41.549Z,1.77
2018-03-22T20:34:10.334Z,2.00
2018-03-22T20:36:38.991Z,2.03
2018-03-22T20:39:07.406Z,2.73
2018-03-22T20:41:36.133Z,1.57
2018-03-22T20:44:04.754Z,2.10
2018-03-22T20:46:33.367Z,2.50
2018-03-22T20:49:01.735Z,5.03
2018-03-22T20:51:30.168Z,1.43
2018-03-22T20:53:58.548Z,3.93
2018-03-22T20:56:26.948Z,1.60
2018-03-22T20:58:55.363Z,1.63
2018-03-22T21:01:23.743Z,2.27
2018-03-22T21:03:52.229Z,2.03
2018-03-22T21:06:20.569Z,3.43
2018-03-22T21:08:49.004Z,2.23
2018-03-22T21:11:17.469Z,4.20
2018-03-22T21:13:45.904Z,2.57
2018-03-22T21:16:14.283Z,3.00
2018-03-22T21:18:42.744Z,1.87
2018-03-22T21:21:11.170Z,5.13
2018-03-22T21:23:39.668Z,2.80
2018-03-22T21:26:08.082Z,2.87
2018-03-22T21:28:36.491Z,3.27
2018-03-22T21:31:04.890Z,6.43
2018-03-22T21:33:33.304Z,2.67
2018-03-22T21:36:01.656Z,5.50
2018-03-22T21:38:30.073Z,4.67
2018-03-22T21:40:58.556Z,2.83
2018-03-22T21:43:26.916Z,2.87
2018-03-22T21:45:55.300Z,2.27
2018-03-22T21:48:23.668Z,3.73
2018-03-22T21:50:52.176Z,4.40
2018-03-22T21:53:20.647Z,4.43
2018-03-22T21:55:49.220Z,2.93
2018-03-22T21:58:17.590Z,3.40
2018-03-22T22:00:45.942Z,2.33
2018-03-22T22:03:14.335Z,2.53
2018-03-22T22:05:42.774Z,3.10
2018-03-22T22:08:11.155Z,3.10
2018-03-22T22:10:39.528Z,2.13
2018-03-22T22:13:07.958Z,2.70
2018-03-22T22:15:36.337Z,1.60
2018-03-22T22:18:04.790Z,3.97
2018-03-22T22:20:33.196Z,5.07
2018-03-22T22:23:01.596Z,3.80
2018-03-22T22:25:29.971Z,2.57
2018-03-22T22:27:58.393Z,2.87
2018-03-22T22:30:26.765Z,3.07
2018-03-22T22:32:55.141Z,1.90
2018-03-22T22:35:23.570Z,2.20
2018-03-22T22:37:51.952Z,2.10
2018-03-22T22:40:20.360Z,3.17
2018-03-22T22:42:48.827Z,1.30
2018-03-22T22:45:17.232Z,2.30
2018-03-22T22:47:45.591Z,2.10
2018-03-22T22:50:14.036Z,3.07
2018-03-22T22:52:42.411Z,2.43
2018-03-22T22:55:10.780Z,2.07
2018-03-22T22:57:39.179Z,3.20
2018-03-22T23:00:07.590Z,2.93
2018-03-22T23:02:36.109Z,3.33
2018-03-22T23:05:04.544Z,2.63
2018-03-22T23:07:32.937Z,2.23
2018-03-22T23:10:01.326Z,3.47
2018-03-22T23:12:29.793Z,3.73
2018-03-22T23:14:58.236Z,3.10
2018-03-22T23:17:26.829Z,3.93
2018-03-22T23:19:55.343Z,3.83
2018-03-22T23:22:23.756Z,2.60
2018-03-22T23:24:52.154Z,3.13
2018-03-22T23:27:20.522Z,3.40
2018-03-22T23:29:48.968Z,4.30
2018-03-22T23:32:17.472Z,2.97
2018-03-22T23:34:45.889Z,3.53
2018-03-22T23:37:14.372Z,4.93
2018-03-22T23:39:42.793Z,6.50
2018-03-22T23:42:11.297Z,4.03
2018-03-22T23:44:39.777Z,3.10
2018-03-22T23:47:08.180Z,4.53
2018-03-22T23:49:36.664Z,2.53
2018-03-22T23:52:05.038Z,3.87
2018-03-22T23:54:33.557Z,2.80
2018-03-22T23:57:01.977Z,3.50
2018-03-22T23:59:30.467Z,2.77
